Latest Weather Observations for Daly Waters

IDD60801

Issued at 2:05 pm CST Wednesday 16 April 2014 (issued every 30 minutes, with the page automatically refreshed every 10 minutes)

About weather observations | Map of weather stations | Latest weather observations for NT | Other Formats
Station Details ID: 014626 Name: DALY WATERS AIRSTRIP Lat: -16.26 Lon: 133.38 Height: 209.84 m
Data from the previous 72 hours. | See also: Recent months at Daly Waters
Date/Time
CST
Temp
°C
App
Temp
°C
Dew
Point
Rel
Hum
%
Delta-T
°C
Wind Press
QNH
hPa
Press
MSL
hPa
Rain
since 9 am
mm
Dir
 
Spd
km/h
Gust
km/h
Spd
kts
Gust
kts
16/02:00pm 33.9 32.2 12.3 27 13.0 SE 13 24 7 13 1010.9 - 0.0
16/01:30pm 33.3 30.8 11.2 26 13.0 SE 15 24 8 13 1011.3 1010.0 0.0
16/01:00pm 32.7 30.1 10.7 26 12.8 SE 15 24 8 13 1011.7 - 0.0
16/12:30pm 33.2 31.6 11.7 27 12.8 SE 11 20 6 11 1012.2 1010.9 0.0
16/12:00pm 32.0 28.7 9.5 25 12.9 SE 17 30 9 16 1012.8 1011.6 0.0
16/11:30am 31.5 28.5 10.8 28 12.0 SE 17 30 9 16 1013.3 1012.1 0.0
16/11:00am 30.6 27.0 10.0 28 11.8 SE 19 30 10 16 1013.9 - 0.0
16/10:30am 29.5 25.8 9.6 29 11.2 SE 19 32 10 17 1014.1 1012.8 0.0
16/10:00am 29.1 25.6 10.3 31 10.7 SE 19 28 10 15 1014.2 - 0.0
16/09:30am 28.1 24.6 10.3 33 10.1 ESE 19 33 10 18 1014.2 1012.9 0.0
16/09:00am 27.1 24.3 11.2 37 9.1 ESE 17 32 9 17 1014.1 1012.8 0.0
16/08:30am 25.5 23.8 12.4 44 7.6 SE 13 20 7 11 1013.9 1012.6 0.0
16/08:00am 23.9 23.1 12.8 49 6.4 SE 9 15 5 8 1013.8 - 0.0
16/07:30am 22.1 22.1 13.5 58 5.0 SE 6 11 3 6 1013.4 1012.2 0.0
16/07:00am 20.9 21.2 13.4 62 4.3 SE 4 9 2 5 1013.3 - 0.0
16/06:30am 21.4 21.0 13.1 59 4.8 SSE 7 15 4 8 1012.9 1011.7 0.0
16/06:00am 21.6 21.3 13.2 59 4.9 SSE 7 11 4 6 1012.6 1011.3 0.0
16/05:30am 21.1 21.0 13.8 63 4.3 SSE 7 13 4 7 1012.5 1011.2 0.0
16/05:00am 18.1 18.8 14.6 80 2.0 S 4 7 2 4 1012.2 - 0.0
16/04:30am 18.2 19.9 15.3 83 1.7 CALM 0 0 0 0 1012.0 1010.7 0.0
16/04:00am 18.2 19.5 15.1 82 1.8 SSE 2 4 1 2 1012.0 - 0.0
16/03:30am 18.2 19.0 14.9 81 1.9 SSW 4 6 2 3 1012.0 1010.7 0.0
16/03:00am 18.0 19.3 15.1 83 1.7 SW 2 6 1 3 1011.9 1010.6 0.0
16/02:30am 18.0 19.6 14.9 82 1.8 CALM 0 0 0 0 1011.9 1010.6 0.0
16/02:00am 18.2 19.8 14.9 81 1.9 S 0 0 0 0 1012.1 - 0.0
16/01:30am 18.6 19.4 14.9 79 2.2 SW 4 4 2 2 1012.3 1011.0 0.0
16/01:00am 18.8 20.1 15.1 79 2.2 SSW 2 4 1 2 1012.6 - 0.0
16/12:30am 19.3 20.8 14.6 74 2.8 SSW 0 0 0 0 1012.8 1011.6 0.0
16/12:00am 19.9 21.1 14.9 73 3.0 S 2 4 1 2 1012.9 1011.7 0.0
 
Date/Time
CST
Temp
°C
App
Temp
°C
Dew
Point
Rel
Hum
%
Delta-T
°C
Wind Press
QNH
hPa
Press
MSL
hPa
Rain
since 9 am
mm
Dir
 
Spd
km/h
Gust
km/h
Spd
kts
Gust
kts
15/11:30pm 20.5 21.2 14.4 68 3.6 S 4 4 2 2 1013.0 1011.8 0.0
15/11:00pm 22.2 22.6 13.8 59 4.9 S 4 6 2 3 1013.2 - 0.0
15/10:30pm 24.1 23.8 12.7 49 6.6 S 6 7 3 4 1013.2 1012.0 0.0
15/10:00pm 24.6 24.4 12.9 48 6.8 SSE 6 9 3 5 1013.3 - 0.0
15/09:30pm 25.1 24.8 12.7 46 7.2 SSE 6 9 3 5 1013.2 1012.0 0.0
15/09:00pm 25.7 25.4 13.2 46 7.4 SSE 7 11 4 6 1013.1 1011.9 0.0
15/08:30pm 25.7 25.5 13.5 46 7.2 S 7 11 4 6 1012.7 1011.4 0.0
15/08:00pm 23.7 24.0 14.4 56 5.5 S 6 9 3 5 1012.3 - 0.0
15/07:30pm 23.6 24.9 15.1 59 5.1 S 2 4 1 2 1011.8 1010.5 0.0
15/07:00pm 25.6 25.8 13.1 46 7.4 SSE 4 4 2 2 1011.3 - 0.0
15/06:30pm 28.7 27.8 10.8 33 10.3 SSE 6 9 3 5 1011.0 1009.7 0.0
15/06:00pm 30.4 29.4 10.9 30 11.3 SSE 7 15 4 8 1010.8 1009.5 0.0
15/05:30pm 31.5 30.6 11.3 29 11.9 SE 7 13 4 7 1010.6 1009.3 0.0
15/05:00pm 31.9 30.6 11.1 28 12.2 SSE 9 20 5 11 1010.5 - 0.0
15/04:30pm 32.2 30.0 10.8 27 12.5 SE 13 20 7 11 1010.3 1009.0 0.0
15/04:00pm 32.2 30.4 10.8 27 12.5 S 11 19 6 10 1010.3 - 0.0
15/03:30pm 32.6 31.3 11.2 27 12.6 S 9 15 5 8 1010.3 1009.0 0.0
15/03:00pm 32.5 30.6 10.5 26 12.8 SSE 11 20 6 11 1010.6 1009.3 0.0
15/02:30pm 32.3 29.9 11.5 28 12.3 SSE 15 28 8 15 1011.0 1009.7 0.0
15/02:00pm 32.1 29.3 11.3 28 12.2 SE 17 26 9 14 1011.4 - 0.0
15/01:30pm 31.9 29.8 11.1 28 12.2 SE 13 24 7 13 1011.8 1010.5 0.0
15/01:00pm 31.8 30.0 12.1 30 11.7 SE 13 20 7 11 1012.5 - 0.0
15/12:30pm 31.7 29.9 12.0 30 11.7 ESE 13 22 7 12 1013.0 1011.8 0.0
15/12:00pm 30.4 27.9 10.9 30 11.3 SE 15 26 8 14 1013.6 1012.3 0.0
15/11:30am 30.4 28.0 11.4 31 11.1 ESE 15 22 8 12 1014.0 1012.7 0.0
15/11:00am 29.7 27.6 11.2 31 10.7 SE 13 24 7 13 1014.4 - 0.0
15/10:30am 28.9 25.6 11.0 33 10.3 SE 19 32 10 17 1014.6 1013.3 0.0
15/10:00am 28.0 24.6 10.7 34 9.9 SE 19 32 10 17 1014.6 - 0.0
15/09:30am 27.3 25.1 12.1 39 8.9 SE 15 22 8 12 1014.7 1013.4 0.0
15/09:00am 26.3 24.8 12.0 41 8.3 SSE 11 19 6 10 1014.4 1013.1 0.0
15/08:30am 24.1 23.7 13.0 50 6.5 SSE 7 15 4 8 1014.2 1012.9 0.0
15/08:00am 22.0 21.5 12.5 54 5.4 S 7 11 4 6 1014.0 - 0.0
15/07:30am 19.9 20.3 12.4 62 4.2 S 2 6 1 3 1013.7 1012.4 0.0
15/07:00am 18.9 18.4 12.2 65 3.8 S 6 9 3 5 1013.1 - 0.0
15/06:30am 17.6 17.2 12.5 72 2.9 S 6 7 3 4 1012.9 1011.7 0.0
15/06:00am 18.8 18.4 12.3 66 3.7 S 6 7 3 4 1012.6 1011.3 0.0
15/05:30am 19.2 18.7 12.7 66 3.7 S 7 11 4 6 1012.4 1011.1 0.0
15/05:00am 18.6 18.3 12.6 68 3.4 S 6 9 3 5 1012.3 - 0.0
15/04:30am 19.0 18.6 13.0 68 3.4 S 7 11 4 6 1012.1 1010.8 0.0
15/04:00am 17.6 17.6 13.5 77 2.3 S 6 9 3 5 1011.9 - 0.0
15/03:30am 16.6 17.4 13.7 83 1.7 S 2 6 1 3 1012.0 1010.7 0.0
15/03:00am 16.9 18.2 14.0 83 1.7 CALM 0 0 0 0 1011.8 1010.5 0.0
15/02:30am 17.4 18.8 14.3 82 1.8 CALM 0 0 0 0 1012.0 1010.7 0.0
15/02:00am 17.8 19.2 14.3 80 2.0 CALM 0 0 0 0 1012.0 - 0.0
15/01:30am 18.4 19.5 14.5 78 2.3 S 2 4 1 2 1012.1 1010.8 0.0
15/01:00am 18.9 19.5 14.2 74 2.7 S 4 6 2 3 1012.4 - 0.0
15/12:30am 19.5 20.0 13.9 70 3.3 S 4 6 2 3 1012.6 1011.3 0.0
15/12:00am 20.4 21.0 14.3 68 3.6 S 4 6 2 3 1012.7 1011.4 0.0
 
Date/Time
CST
Temp
°C
App
Temp
°C
Dew
Point
Rel
Hum
%
Delta-T
°C
Wind Press
QNH
hPa
Press
MSL
hPa
Rain
since 9 am
mm
Dir
 
Spd
km/h
Gust
km/h
Spd
kts
Gust
kts
14/11:30pm 21.3 21.1 13.0 59 4.8 SSE 6 7 3 4 1012.8 1011.6 0.0
14/11:00pm 21.2 22.0 12.6 58 4.9 CALM 0 2 0 1 1012.9 - 0.0
14/10:30pm 22.5 22.6 12.7 54 5.6 S 4 7 2 4 1013.2 1012.0 0.0
14/10:00pm 23.9 23.4 12.2 48 6.7 SSE 6 7 3 4 1013.2 - 0.0
14/09:30pm 24.6 24.2 12.9 48 6.8 S 7 13 4 7 1013.2 1012.0 0.0
14/09:00pm 23.8 24.2 13.6 52 6.0 S 4 7 2 4 1013.0 1011.8 0.0
14/08:30pm 24.7 24.8 13.9 51 6.4 S 6 7 3 4 1012.8 1011.6 0.0
14/08:00pm 23.1 24.4 16.2 65 4.2 S 4 6 2 3 1012.3 - 0.0
14/07:30pm 23.7 25.4 17.2 67 4.1 S 4 6 2 3 1011.7 1010.4 0.0
14/07:00pm 24.4 26.6 16.4 61 4.9 CALM 0 0 0 0 1011.2 - 0.0
14/06:30pm 27.1 29.4 16.7 53 6.5 CALM 0 0 0 0 1010.7 1009.4 0.0
14/06:00pm 29.4 30.6 14.8 41 9.0 S 2 4 1 2 1010.4 1009.1 0.0
14/05:30pm 30.9 31.4 12.8 33 10.8 SSW 2 7 1 4 1010.2 1008.9 0.0
14/05:00pm 30.9 30.3 11.8 31 11.3 SW 6 9 3 5 1009.9 - 0.0
14/04:30pm 32.5 32.6 12.7 30 11.9 SSW 4 11 2 6 1009.7 1008.4 0.0
14/04:00pm 31.6 30.1 11.9 30 11.7 S 11 20 6 11 1009.6 - 0.0
14/03:30pm 31.9 30.6 11.1 28 12.2 S 9 17 5 9 1009.7 1008.4 0.0
14/03:00pm 31.6 30.6 10.9 28 12.1 S 7 15 4 8 1009.9 1008.6 0.0
14/02:30pm 32.0 31.1 11.2 28 12.2 S 7 17 4 9 1010.2 1008.9 0.0
14/02:00pm 31.7 30.5 10.4 27 12.3 S 7 15 4 8 1010.5 - 0.0
14/01:30pm 32.0 31.2 11.7 28 12.0 E 7 13 4 7 1010.8 1009.5 0.0
14/01:00pm 30.9 29.1 10.8 29 11.7 SE 11 19 6 10 1011.4 - 0.0
14/12:30pm 30.9 30.1 11.8 31 11.3 E 7 13 4 7 1011.8 1010.5 0.0
14/12:00pm 30.4 29.4 12.3 33 10.7 SSE 9 13 5 7 1012.2 1010.9 0.0
14/11:30am 30.2 30.0 13.5 36 10.1 SE 7 11 4 6 1012.7 1011.4 0.0
14/11:00am 28.9 27.8 11.9 35 9.9 ESE 9 15 5 8 1013.2 - 0.0
14/10:30am 27.9 25.9 11.5 36 9.5 ESE 13 22 7 12 1013.7 1012.4 0.0
14/10:00am 27.2 25.5 12.4 40 8.7 SE 13 20 7 11 1013.7 - 0.0
14/09:30am 26.6 24.7 13.0 43 8.0 ESE 15 24 8 13 1013.4 1012.2 0.0
14/09:00am 24.7 22.7 12.6 47 7.0 ESE 15 26 8 14 1013.1 1011.9 0.0
14/08:30am 23.0 20.9 12.3 51 6.1 SE 15 30 8 16 1013.0 1011.8 0.0
14/08:00am 22.8 21.1 12.4 52 6.0 SE 13 28 7 15 1012.7 - 0.0
14/07:30am 22.3 22.2 13.9 59 4.9 SSE 7 13 4 7 1012.4 1011.1 0.0
14/07:00am 20.9 20.7 13.6 63 4.2 SSE 7 15 4 8 1011.9 - 0.0
14/06:30am 20.2 20.4 14.1 68 3.6 SSE 6 7 3 4 1011.5 1010.2 0.0
14/06:00am 20.1 20.6 14.9 72 3.1 SE 6 9 3 5 1011.0 1009.7 0.0
14/05:30am 19.7 20.6 16.0 79 2.2 SSE 6 9 3 5 1010.8 1009.5 0.0
14/05:00am 18.4 20.5 16.2 87 1.3 CALM 0 0 0 0 1010.7 - 0.0
14/04:30am 18.0 19.7 15.1 83 1.7 CALM 0 0 0 0 1010.6 1009.3 0.0
14/04:00am 18.3 19.7 15.4 83 1.7 SSE 2 4 1 2 1010.5 - 0.0
14/03:30am 18.8 19.9 15.5 81 2.0 SSE 4 4 2 2 1010.4 1009.1 0.0
14/03:00am 18.8 19.9 15.7 82 1.9 SSE 4 6 2 3 1010.5 1009.2 0.0
14/02:30am 18.8 20.0 15.9 83 1.7 S 4 6 2 3 1010.6 1009.3 0.0
14/02:00am 19.3 21.3 16.0 81 2.0 CALM 0 0 0 0 1010.6 - 0.0
14/01:30am 19.8 20.9 15.7 77 2.5 S 4 6 2 3 1010.6 1009.3 0.0
14/01:00am 20.2 22.2 16.0 77 2.5 CALM 0 0 0 0 1011.0 - 0.0
14/12:30am 20.7 22.8 16.3 76 2.7 CALM 0 0 0 0 1011.3 1010.0 0.0
14/12:00am 22.1 23.0 15.2 65 4.1 SSE 4 6 2 3 1011.5 1010.2 0.0
 
Date/Time
CST
Temp
°C
App
Temp
°C
Dew
Point
Rel
Hum
%
Delta-T
°C
Wind Press
QNH
hPa
Press
MSL
hPa
Rain
since 9 am
mm
Dir
 
Spd
km/h
Gust
km/h
Spd
kts
Gust
kts
13/11:30pm 22.8 23.6 14.9 61 4.7 SSE 4 6 2 3 1011.6 1010.3 0.0
13/11:00pm 23.7 24.2 14.9 57 5.3 SSE 6 7 3 4 1011.9 - 0.0
13/10:30pm 23.7 24.6 15.2 59 5.1 ESE 4 6 2 3 1011.8 1010.5 0.0
13/10:00pm 23.7 24.6 16.0 62 4.7 S 6 7 3 4 1011.7 - 0.0
13/09:30pm 24.0 24.9 16.0 61 4.9 S 6 7 3 4 1011.7 1010.4 0.0
13/09:00pm 24.5 25.6 16.5 61 5.0 S 6 7 3 4 1011.7 1010.4 0.0
13/08:30pm 24.3 25.5 16.8 63 4.7 S 6 7 3 4 1011.4 1010.1 0.0
13/08:00pm 24.3 26.3 17.8 67 4.1 S 4 6 2 3 1011.1 - 0.0
13/07:30pm 25.2 27.1 17.7 63 4.7 S 4 6 2 3 1010.5 1009.2 0.0
13/07:00pm 26.7 28.5 17.5 57 5.8 S 4 7 2 4 1010.3 - 0.0
13/06:30pm 28.0 30.5 17.2 52 6.8 CALM 0 4 0 2 1010.0 1008.7 0.0
13/06:00pm 30.5 31.4 15.0 39 9.6 S 4 7 2 4 1009.6 1008.3 0.0
13/05:30pm 31.3 30.5 14.0 35 10.6 SSE 11 15 6 8 1009.3 1008.0 0.0
13/05:00pm 31.8 31.9 14.4 34 10.7 SSE 7 13 4 7 1009.1 - 0.0
13/04:30pm 32.7 33.4 13.4 31 11.8 S 2 7 1 4 1008.8 1007.5 0.0
13/04:00pm 31.7 32.0 13.5 33 11.0 SE 4 9 2 5 1008.9 - 0.0
13/03:30pm 32.8 32.3 13.9 31 11.6 SE 9 19 5 10 1008.8 1007.5 0.0
13/03:00pm 32.4 32.2 13.6 32 11.5 SSE 7 13 4 7 1009.0 1007.7 0.0
13/02:30pm 32.5 32.5 13.7 32 11.5 SSE 6 15 3 8 1009.2 1007.9 0.0

Other Formats:

Comma delimited format used in spreadsheet applications
http://www.bom.gov.au/fwo/IDD60801/IDD60801.94234.axf

JavaScript Object Notation format (JSON) in row-major order
http://www.bom.gov.au/fwo/IDD60801/IDD60801.94234.json